createdAt,value
2023-05-10T00:00:48.850Z,67.39
2023-05-10T00:03:54.458Z,65.97
2023-05-10T00:07:01.142Z,69.16
2023-05-10T00:10:07.468Z,70.01
2023-05-10T00:13:13.955Z,70.48
2023-05-10T00:16:22.212Z,69.85
2023-05-10T00:19:28.692Z,72.86
2023-05-10T00:22:34.342Z,71.23
2023-05-10T00:25:40.749Z,70.14
2023-05-10T00:28:46.442Z,69.51
2023-05-10T00:31:55.530Z,71.60
2023-05-10T00:35:03.740Z,72.23
2023-05-10T00:38:10.466Z,73.09
2023-05-10T00:41:16.878Z,74.66
2023-05-10T00:44:25.052Z,76.54
2023-05-10T00:47:33.701Z,75.17
2023-05-10T00:50:41.305Z,76.64
2023-05-10T00:53:49.803Z,73.90
2023-05-10T00:56:58.136Z,75.25
2023-05-10T01:00:05.426Z,72.26
2023-05-10T01:03:15.639Z,76.14
2023-05-10T01:06:22.562Z,76.97
2023-05-10T01:09:30.219Z,76.35
2023-05-10T01:12:36.397Z,75.65
2023-05-10T01:15:44.916Z,75.47
2023-05-10T01:18:56.072Z,76.51
2023-05-10T01:22:24.951Z,76.40
2023-05-10T01:26:20.728Z,78.67
2023-05-10T01:30:14.900Z,81.89
2023-05-10T01:33:34.172Z,80.05
2023-05-10T01:36:52.452Z,81.00
2023-05-10T01:40:11.758Z,77.98
2023-05-10T01:43:28.714Z,78.20
2023-05-10T01:46:40.821Z,79.56
2023-05-10T01:49:57.327Z,79.78
2023-05-10T01:53:06.868Z,76.87
2023-05-10T01:56:16.676Z,78.46
2023-05-10T01:59:25.445Z,81.01
2023-05-10T02:02:40.725Z,80.61
2023-05-10T02:05:55.315Z,79.36
2023-05-10T02:09:02.112Z,76.26
2023-05-10T02:12:13.118Z,80.07
2023-05-10T02:15:26.330Z,79.14
2023-05-10T02:18:32.374Z,79.98
2023-05-10T02:21:45.657Z,83.49
2023-05-10T02:24:54.660Z,81.41
2023-05-10T02:28:08.169Z,82.20
2023-05-10T02:31:17.432Z,85.63
2023-05-10T02:34:27.252Z,85.16
2023-05-10T02:37:38.169Z,81.65
2023-05-10T02:40:50.059Z,87.27
2023-05-10T02:44:05.129Z,80.59
2023-05-10T02:47:11.820Z,83.33
2023-05-10T02:50:18.279Z,83.70
2023-05-10T02:53:38.444Z,85.71
2023-05-10T02:56:54.544Z,83.50
2023-05-10T03:00:01.490Z,83.08
2023-05-10T03:03:08.121Z,79.19
2023-05-10T03:06:14.993Z,76.99
2023-05-10T03:09:23.825Z,80.96
2023-05-10T03:12:54.177Z,78.93
2023-05-10T03:16:11.910Z,77.63
2023-05-10T03:19:30.354Z,79.66
2023-05-10T03:22:48.465Z,79.69
2023-05-10T03:26:00.176Z,77.06
2023-05-10T03:29:08.833Z,76.29
2023-05-10T03:32:15.719Z,77.13
2023-05-10T03:35:21.518Z,75.63
2023-05-10T03:38:30.264Z,73.32
2023-05-10T03:41:38.868Z,74.96
2023-05-10T03:44:45.509Z,78.70
2023-05-10T03:47:51.110Z,103.63
2023-05-10T03:50:57.758Z,115.17
2023-05-10T03:54:04.099Z,94.97
2023-05-10T03:57:13.626Z,79.38
2023-05-10T04:00:20.561Z,76.84
2023-05-10T04:03:31.599Z,79.97
2023-05-10T04:06:37.362Z,80.86
2023-05-10T04:09:44.826Z,75.86
2023-05-10T04:12:53.111Z,78.09
2023-05-10T04:15:59.500Z,94.41
2023-05-10T04:19:05.299Z,100.28
2023-05-10T04:22:12.815Z,97.62
2023-05-10T04:25:18.523Z,84.83
2023-05-10T04:28:27.488Z,90.92
2023-05-10T04:31:33.172Z,90.93
2023-05-10T04:34:39.980Z,89.46
2023-05-10T04:37:45.552Z,85.50
2023-05-10T04:40:51.986Z,80.63
2023-05-10T04:44:00.391Z,80.55
2023-05-10T04:47:07.291Z,80.27
2023-05-10T04:50:13.738Z,75.83
2023-05-10T04:53:20.063Z,77.02
2023-05-10T04:56:25.960Z,77.82
2023-05-10T04:59:35.200Z,78.30
2023-05-10T05:02:40.899Z,82.15
2023-05-10T05:05:48.121Z,80.56
2023-05-10T05:08:53.881Z,83.41
2023-05-10T05:12:00.649Z,79.02
2023-05-10T05:15:10.917Z,79.27
2023-05-10T05:18:17.397Z,79.65
2023-05-10T05:21:25.202Z,82.43
2023-05-10T05:24:31.595Z,81.70
2023-05-10T05:27:37.192Z,79.33
2023-05-10T05:30:46.688Z,80.32
2023-05-10T05:33:52.348Z,78.26
2023-05-10T05:36:58.845Z,77.29
2023-05-10T05:40:04.850Z,78.80
2023-05-10T05:43:11.297Z,79.22
2023-05-10T05:46:19.717Z,77.05
2023-05-10T05:49:26.165Z,72.81
2023-05-10T05:52:31.664Z,70.65
2023-05-10T05:55:38.156Z,70.33
2023-05-10T05:58:44.759Z,69.06
2023-05-10T06:01:54.597Z,62.49
2023-05-10T06:05:00.415Z,65.34
2023-05-10T06:08:07.199Z,62.84
2023-05-10T06:11:12.833Z,60.26
2023-05-10T06:14:22.354Z,62.66
2023-05-10T06:17:30.542Z,61.37
2023-05-10T06:20:37.119Z,60.26
2023-05-10T06:23:42.724Z,58.00
2023-05-10T06:26:51.214Z,60.45
2023-05-10T06:30:09.147Z,56.51
2023-05-10T06:33:21.681Z,56.37
2023-05-10T06:36:28.572Z,53.69
2023-05-10T06:39:34.941Z,50.97
2023-05-10T06:42:40.605Z,50.67
2023-05-10T06:45:47.450Z,48.90
2023-05-10T06:48:55.743Z,51.54
2023-05-10T06:52:02.212Z,50.28
2023-05-10T06:55:09.972Z,47.79
2023-05-10T06:58:16.543Z,48.46
2023-05-10T07:01:22.306Z,46.40
2023-05-10T07:04:31.370Z,40.50
2023-05-10T07:07:39.556Z,42.15
2023-05-10T07:10:46.572Z,37.58
2023-05-10T07:13:52.220Z,38.53
2023-05-10T07:16:58.704Z,39.04
2023-05-10T07:20:08.013Z,40.31
2023-05-10T07:23:19.028Z,36.83
2023-05-10T07:26:25.208Z,34.67
2023-05-10T07:29:32.083Z,36.18
2023-05-10T07:32:38.033Z,35.23
2023-05-10T07:35:47.436Z,33.82
2023-05-10T07:38:53.380Z,31.29
2023-05-10T07:42:00.250Z,33.33
2023-05-10T07:45:05.926Z,31.47
2023-05-10T07:48:12.502Z,28.74
2023-05-10T07:51:20.700Z,30.19
2023-05-10T07:54:27.266Z,30.57
2023-05-10T07:57:32.927Z,25.07
2023-05-10T08:00:40.699Z,23.72
2023-05-10T08:03:46.482Z,24.67
2023-05-10T08:06:55.596Z,23.71
2023-05-10T08:10:01.381Z,24.40
2023-05-10T08:13:08.214Z,24.56
2023-05-10T08:16:13.870Z,24.32
2023-05-10T08:19:22.636Z,25.66
2023-05-10T08:22:30.945Z,24.55
2023-05-10T08:25:37.531Z,20.10
2023-05-10T08:28:43.175Z,20.77
2023-05-10T08:31:49.779Z,21.05
2023-05-10T08:34:55.542Z,20.92
2023-05-10T08:38:05.017Z,18.04
2023-05-10T08:41:11.010Z,19.17
2023-05-10T08:44:19.677Z,19.25
2023-05-10T08:47:26.669Z,20.32
2023-05-10T08:50:35.382Z,21.42
2023-05-10T08:53:44.680Z,21.26
2023-05-10T08:56:51.326Z,22.23
2023-05-10T08:59:57.408Z,18.31
2023-05-10T09:03:05.522Z,18.91
2023-05-10T09:06:11.792Z,19.51
2023-05-10T09:09:21.954Z,18.90
2023-05-10T09:12:28.126Z,21.16
2023-05-10T09:15:35.117Z,19.02
2023-05-10T09:18:40.712Z,18.77
2023-05-10T09:21:47.899Z,18.42
2023-05-10T09:25:12.167Z,20.16
2023-05-10T09:28:18.679Z,18.68
2023-05-10T09:31:24.991Z,19.88
2023-05-10T09:34:41.105Z,19.10
2023-05-10T09:37:49.674Z,19.35
2023-05-10T09:40:59.028Z,18.91
2023-05-10T09:44:04.656Z,19.39
2023-05-10T09:47:11.146Z,18.70
2023-05-10T09:50:17.398Z,19.83
2023-05-10T09:53:26.615Z,21.41
2023-05-10T09:56:42.098Z,19.79
2023-05-10T09:59:48.783Z,18.98
2023-05-10T10:03:01.249Z,19.47
2023-05-10T10:06:26.382Z,20.27
2023-05-10T10:09:37.604Z,19.47
2023-05-10T10:12:48.301Z,19.91
2023-05-10T10:15:55.328Z,20.09
2023-05-10T10:19:02.842Z,21.55
2023-05-10T10:22:12.981Z,19.25
2023-05-10T10:25:23.107Z,21.05
2023-05-10T10:28:59.577Z,21.45
2023-05-10T10:32:25.919Z,22.56
2023-05-10T10:35:33.652Z,19.93
2023-05-10T10:39:05.394Z,22.77
2023-05-10T10:42:11.064Z,21.43
2023-05-10T10:45:20.010Z,21.26
2023-05-10T10:48:27.510Z,20.32
2023-05-10T10:51:36.512Z,20.65
2023-05-10T10:54:43.078Z,18.93
2023-05-10T10:57:53.454Z,19.83
2023-05-10T11:01:18.499Z,19.10
2023-05-10T11:04:24.999Z,21.99
2023-05-10T11:07:30.847Z,22.42
2023-05-10T11:10:37.750Z,17.65
2023-05-10T11:13:50.024Z,18.48
2023-05-10T11:17:02.493Z,19.79
2023-05-10T11:20:12.700Z,19.69
2023-05-10T11:23:19.398Z,21.05
2023-05-10T11:26:26.673Z,19.98
2023-05-10T11:29:33.206Z,20.51
2023-05-10T11:32:42.507Z,19.49
2023-05-10T11:35:49.631Z,18.86
2023-05-10T11:38:56.674Z,17.79
2023-05-10T11:42:03.878Z,20.73
2023-05-10T11:45:12.281Z,19.48
2023-05-10T11:48:25.082Z,21.98
2023-05-10T11:51:30.719Z,20.88
2023-05-10T11:54:38.222Z,21.87
2023-05-10T11:57:47.094Z,21.66
2023-05-10T12:00:54.696Z,22.28
2023-05-10T12:04:04.749Z,20.90
2023-05-10T12:07:11.505Z,21.99
2023-05-10T12:10:19.465Z,20.53
2023-05-10T12:13:26.316Z,20.75
2023-05-10T12:16:33.846Z,19.84
2023-05-10T12:19:49.009Z,19.30
2023-05-10T12:23:00.351Z,20.07
2023-05-10T12:26:08.227Z,20.02
2023-05-10T12:29:19.642Z,19.32
2023-05-10T12:32:41.988Z,19.94
2023-05-10T12:35:57.538Z,19.87
2023-05-10T12:39:07.635Z,18.88
2023-05-10T12:42:14.045Z,18.71
2023-05-10T12:45:23.285Z,17.73
2023-05-10T12:48:29.944Z,16.89
2023-05-10T12:51:39.009Z,19.19
2023-05-10T12:54:47.168Z,18.53
2023-05-10T12:57:53.567Z,18.09
2023-05-10T13:01:00.034Z,17.55
2023-05-10T13:04:06.659Z,16.85
2023-05-10T13:07:14.864Z,17.52
2023-05-10T13:10:21.528Z,20.06
2023-05-10T13:13:27.435Z,18.32
2023-05-10T13:16:33.979Z,17.17
2023-05-10T13:19:39.701Z,16.95
2023-05-10T13:22:50.513Z,18.66
2023-05-10T13:25:56.862Z,18.82
2023-05-10T13:29:03.295Z,18.58
2023-05-10T13:32:09.781Z,17.01
2023-05-10T13:35:16.776Z,20.29
2023-05-10T13:38:24.968Z,19.61
2023-05-10T13:41:31.292Z,20.56
2023-05-10T13:44:37.331Z,19.17
2023-05-10T13:47:43.783Z,21.06
2023-05-10T13:50:50.122Z,18.74
2023-05-10T13:53:59.287Z,19.05
2023-05-10T13:57:05.765Z,19.54
2023-05-10T14:00:14.021Z,18.73
2023-05-10T14:03:19.717Z,20.27
2023-05-10T14:06:26.316Z,18.89
2023-05-10T14:09:34.682Z,18.87
2023-05-10T14:12:41.266Z,18.17
2023-05-10T14:15:47.296Z,21.16
2023-05-10T14:18:53.886Z,21.96
2023-05-10T14:21:59.581Z,23.40
2023-05-10T14:25:09.623Z,24.79
2023-05-10T14:28:15.741Z,23.45
2023-05-10T14:31:22.564Z,29.37
2023-05-10T14:34:28.262Z,21.14
2023-05-10T14:37:34.692Z,21.20
2023-05-10T14:40:43.082Z,19.26
2023-05-10T14:43:52.548Z,20.09
2023-05-10T14:46:58.406Z,19.32
2023-05-10T14:50:05.099Z,20.95
2023-05-10T14:53:11.572Z,21.43
2023-05-10T14:56:21.862Z,20.97
2023-05-10T14:59:27.515Z,21.89
2023-05-10T15:02:35.396Z,21.31
2023-05-10T15:05:41.735Z,21.67
2023-05-10T15:08:48.170Z,22.51
2023-05-10T15:11:56.608Z,23.74
2023-05-10T15:15:08.822Z,24.96
2023-05-10T15:18:17.710Z,21.09
2023-05-10T15:21:24.286Z,21.12
2023-05-10T15:24:30.132Z,20.48
2023-05-10T15:27:39.484Z,20.60
2023-05-10T15:30:48.090Z,19.22
2023-05-10T15:33:54.700Z,20.04
2023-05-10T15:37:00.376Z,21.90
2023-05-10T15:40:10.869Z,21.09
2023-05-10T15:43:19.469Z,20.61
2023-05-10T15:46:25.882Z,21.58
2023-05-10T15:49:31.585Z,22.75
2023-05-10T15:52:38.354Z,21.76
2023-05-10T15:55:44.111Z,22.69
2023-05-10T15:58:53.256Z,20.51
2023-05-10T16:01:59.821Z,22.54
2023-05-10T16:05:07.487Z,23.16
2023-05-10T16:08:13.072Z,24.24
2023-05-10T16:11:19.909Z,22.89
2023-05-10T16:14:28.119Z,791.87
2023-05-10T16:17:34.617Z,1538.12
2023-05-10T16:20:51.198Z,849.92
2023-05-10T16:23:58.098Z,26.31
2023-05-10T16:27:03.731Z,64.39
2023-05-10T16:30:14.535Z,35.30
2023-05-10T16:33:20.375Z,106.85
2023-05-10T16:36:26.869Z,130.91
2023-05-10T16:39:32.876Z,73.62
2023-05-10T16:42:39.264Z,337.02
2023-05-10T16:45:47.623Z,208.70
2023-05-10T16:48:54.224Z,41.76
2023-05-10T16:52:00.803Z,49.22
2023-05-10T16:55:08.320Z,26.41
2023-05-10T16:58:13.936Z,26.56
2023-05-10T17:01:24.379Z,28.88
2023-05-10T17:04:32.148Z,27.30
2023-05-10T17:07:38.607Z,26.96
2023-05-10T17:10:44.233Z,26.69
2023-05-10T17:13:52.647Z,26.37
2023-05-10T17:17:01.172Z,26.61
2023-05-10T17:20:09.636Z,26.09
2023-05-10T17:23:15.449Z,28.06
2023-05-10T17:26:22.569Z,30.24
2023-05-10T17:29:28.610Z,28.94
2023-05-10T17:32:38.022Z,29.41
2023-05-10T17:35:43.749Z,29.26
2023-05-10T17:38:50.766Z,31.07
2023-05-10T17:41:56.589Z,32.00
2023-05-10T17:45:04.049Z,31.67
2023-05-10T17:48:12.438Z,34.35
2023-05-10T17:51:18.888Z,37.03
2023-05-10T17:54:27.287Z,33.99
2023-05-10T17:57:33.732Z,30.77
2023-05-10T18:00:40.195Z,32.56
2023-05-10T18:03:49.572Z,31.94
2023-05-10T18:07:01.852Z,51.07
2023-05-10T18:10:09.992Z,53.58
2023-05-10T18:13:15.653Z,51.20
2023-05-10T18:16:22.178Z,45.85
2023-05-10T18:19:30.507Z,47.38
2023-05-10T18:22:37.145Z,55.99
2023-05-10T18:25:42.816Z,53.09
2023-05-10T18:28:49.203Z,45.42
2023-05-10T18:31:55.036Z,46.31
2023-05-10T18:35:04.746Z,51.36
2023-05-10T18:38:12.725Z,48.03
2023-05-10T18:41:19.283Z,44.44
2023-05-10T18:44:26.660Z,38.03
2023-05-10T18:47:33.166Z,37.75
2023-05-10T18:50:41.526Z,40.13
2023-05-10T18:53:47.966Z,41.32
2023-05-10T18:56:53.449Z,43.39
2023-05-10T18:59:59.829Z,45.33
2023-05-10T19:03:05.720Z,47.87
2023-05-10T19:06:17.588Z,52.38
2023-05-10T19:09:23.298Z,51.28
2023-05-10T19:12:29.866Z,48.57
2023-05-10T19:15:35.592Z,56.63
2023-05-10T19:18:44.942Z,55.83
2023-05-10T19:21:54.004Z,52.53
2023-05-10T19:25:00.859Z,46.21
2023-05-10T19:28:06.573Z,46.19
2023-05-10T19:31:13.092Z,44.92
2023-05-10T19:34:18.898Z,42.82
2023-05-10T19:37:28.149Z,45.00
2023-05-10T19:40:34.077Z,43.76
2023-05-10T19:43:42.093Z,42.84
2023-05-10T19:46:47.686Z,42.62
2023-05-10T19:49:54.203Z,45.62
2023-05-10T19:53:02.850Z,44.15
2023-05-10T19:56:10.649Z,44.91
2023-05-10T19:59:16.887Z,46.30
2023-05-10T20:02:23.430Z,48.88
2023-05-10T20:05:29.105Z,50.95
2023-05-10T20:08:38.002Z,49.37
2023-05-10T20:11:43.670Z,47.36
2023-05-10T20:14:50.233Z,47.66
2023-05-10T20:17:56.098Z,50.64
2023-05-10T20:21:05.024Z,49.27
2023-05-10T20:24:13.489Z,49.01
2023-05-10T20:27:21.313Z,53.56
2023-05-10T20:30:27.036Z,49.36
2023-05-10T20:33:33.583Z,49.22
2023-05-10T20:36:39.263Z,50.64
2023-05-10T20:39:50.395Z,46.88
2023-05-10T20:42:56.791Z,44.66
2023-05-10T20:46:05.736Z,42.45
2023-05-10T20:49:12.167Z,44.81
2023-05-10T20:52:19.961Z,44.30
2023-05-10T20:55:28.221Z,47.26
2023-05-10T20:58:35.085Z,45.65
2023-05-10T21:01:40.763Z,44.71
2023-05-10T21:04:47.345Z,46.46
2023-05-10T21:07:54.411Z,44.87
2023-05-10T21:11:07.368Z,48.48
2023-05-10T21:14:13.327Z,47.73
2023-05-10T21:17:20.307Z,46.17
2023-05-10T21:20:27.112Z,47.08
2023-05-10T21:23:34.681Z,49.25
2023-05-10T21:26:43.482Z,47.05
2023-05-10T21:29:50.118Z,49.05
2023-05-10T21:32:59.869Z,48.89
2023-05-10T21:36:07.620Z,49.44
2023-05-10T21:39:14.366Z,48.52
2023-05-10T21:42:23.390Z,49.54
2023-05-10T21:45:31.822Z,47.57
2023-05-10T21:48:38.786Z,49.22
2023-05-10T21:51:44.558Z,47.25
2023-05-10T21:54:52.097Z,46.43
2023-05-10T21:58:01.223Z,49.24
2023-05-10T22:01:08.007Z,49.79
2023-05-10T22:04:13.822Z,48.95
2023-05-10T22:07:20.355Z,46.59
2023-05-10T22:10:25.975Z,44.98
2023-05-10T22:13:35.061Z,45.50
2023-05-10T22:16:40.751Z,46.18
2023-05-10T22:19:47.470Z,45.68
2023-05-10T22:22:53.123Z,48.46
2023-05-10T22:26:04.352Z,45.94
2023-05-10T22:29:12.808Z,45.78
2023-05-10T22:32:19.640Z,48.02
2023-05-10T22:35:25.575Z,47.55
2023-05-10T22:38:31.978Z,46.60
2023-05-10T22:41:37.788Z,47.11
2023-05-10T22:44:47.198Z,49.24
2023-05-10T22:47:53.026Z,50.46
2023-05-10T22:50:59.551Z,48.13
2023-05-10T22:54:05.050Z,47.82
2023-05-10T22:57:11.800Z,49.93
2023-05-10T23:00:20.978Z,50.89
2023-05-10T23:03:28.747Z,51.08
2023-05-10T23:06:34.391Z,51.39
2023-05-10T23:09:40.781Z,54.32
2023-05-10T23:12:46.646Z,56.70
2023-05-10T23:15:55.639Z,53.77
2023-05-10T23:19:01.366Z,54.29
2023-05-10T23:22:07.945Z,56.47
2023-05-10T23:25:14.057Z,55.20
2023-05-10T23:28:20.527Z,58.10
2023-05-10T23:31:28.857Z,59.33
2023-05-10T23:34:35.321Z,56.07
2023-05-10T23:37:42.272Z,58.05
2023-05-10T23:40:52.559Z,58.88
2023-05-10T23:43:58.023Z,60.37
2023-05-10T23:47:07.424Z,57.96
2023-05-10T23:50:14.238Z,62.52
2023-05-10T23:53:20.740Z,62.05
2023-05-10T23:56:26.977Z,56.39
2023-05-10T23:59:33.347Z,53.98
